Time;durP1;ratioP1;P1;durP2;ratioP2;P2;SDS_P1;SDS_P2;PMS_P1;PMS_P2;Temp;Humidity;BMP_temperature;BMP_pressure;BME280_temperature;BME280_humidity;BME280_pressure;Samples;Min_cycle;Max_cycle;Signal;HPM_P1;HPM_P2
2021/04/04 00:01:13;;;;;;;27.92;6.40;;;;;;;7.87;100.00;103248.88;5033585;28;20052;-71
2021/04/04 00:03:39;;;;;;;24.88;5.93;;;;;;;7.87;100.00;103254.31;5033384;28;20037;-70
2021/04/04 00:06:05;;;;;;;21.27;6.40;;;;;;;7.86;100.00;103247.16;5033921;28;20063;-69
2021/04/04 00:08:30;;;;;;;28.30;5.70;;;;;;;7.85;100.00;103248.19;5033467;28;20037;-70
2021/04/04 00:10:56;;;;;;;21.42;5.72;;;;;;;7.84;100.00;103232.88;5033567;28;20459;-69
2021/04/04 00:13:21;;;;;;;23.25;6.68;;;;;;;7.84;100.00;103243.75;5033544;28;20111;-69
2021/04/04 00:15:47;;;;;;;16.90;4.70;;;;;;;7.81;100.00;103233.22;5033136;28;20060;-69
2021/04/04 00:18:13;;;;;;;21.65;5.18;;;;;;;7.80;100.00;103236.94;5033157;28;20431;-70
2021/04/04 00:20:38;;;;;;;16.80;5.43;;;;;;;7.78;100.00;103234.38;5033126;28;20037;-68
2021/04/04 00:23:05;;;;;;;23.45;6.28;;;;;;;7.79;100.00;103235.22;5033213;28;20410;-71
2021/04/04 00:25:31;;;;;;;20.42;4.95;;;;;;;7.77;100.00;103231.81;5031823;28;20136;-69
2021/04/04 00:27:57;;;;;;;21.08;5.10;;;;;;;7.77;100.00;103237.25;5031835;28;20052;-69
2021/04/04 00:30:24;;;;;;;12.23;5.30;;;;;;;7.76;100.00;103235.56;5032955;28;20064;-69
2021/04/04 00:32:50;;;;;;;24.17;6.20;;;;;;;7.74;100.00;103237.59;5031628;28;20041;-69
2021/04/04 00:35:21;;;;;;;15.55;5.10;;;;;;;7.72;100.00;103234.19;5033039;28;20431;-69
2021/04/04 00:37:47;;;;;;;16.90;4.40;;;;;;;7.71;100.00;103232.50;5033467;28;20131;-70
2021/04/04 00:40:19;;;;;;;16.85;5.90;;;;;;;7.69;100.00;103231.81;5032978;28;20459;-69
2021/04/04 00:42:45;;;;;;;16.02;4.50;;;;;;;7.66;100.00;103223.97;5032709;28;20057;-69
2021/04/04 00:45:15;;;;;;;17.58;5.07;;;;;;;7.64;100.00;103229.59;5032661;28;20099;-68
2021/04/04 00:47:40;;;;;;;18.45;4.88;;;;;;;7.62;100.00;103228.03;5032724;28;20065;-69
2021/04/04 00:50:07;;;;;;;23.48;5.88;;;;;;;7.58;100.00;103227.50;5032556;28;20084;-70
2021/04/04 00:52:35;;;;;;;19.63;5.20;;;;;;;7.55;100.00;103223.25;5032560;28;20116;-68
2021/04/04 00:55:01;;;;;;;19.48;5.03;;;;;;;7.53;100.00;103227.16;5032705;28;20130;-69
2021/04/04 00:57:26;;;;;;;17.17;5.43;;;;;;;7.51;100.00;103227.31;5032571;28;20537;-68
2021/04/04 00:59:52;;;;;;;19.70;5.03;;;;;;;7.49;100.00;103214.91;5032601;28;20038;-69
2021/04/04 01:02:19;;;;;;;21.05;6.03;;;;;;;7.48;100.00;103232.25;5032269;28;20799;-70
2021/04/04 01:04:49;;;;;;;23.55;4.95;;;;;;;7.46;100.00;103224.25;5032173;28;20041;-68
2021/04/04 01:07:14;;;;;;;23.63;5.60;;;;;;;7.43;100.00;103229.13;5032322;28;20037;-68
2021/04/04 01:09:40;;;;;;;20.73;6.45;;;;;;;7.41;100.00;103220.28;5032323;28;20069;-69
2021/04/04 01:12:15;;;;;;;23.08;6.05;;;;;;;7.38;100.00;103216.03;5032460;28;20041;-68
2021/04/04 01:14:49;;;;;;;26.27;6.13;;;;;;;7.37;100.00;103222.50;5032287;28;20376;-70
2021/04/04 01:17:20;;;;;;;24.02;5.53;;;;;;;7.34;100.00;103220.09;5032263;28;20061;-68
2021/04/04 01:20:04;;;;;;;19.33;5.45;;;;;;;7.30;100.00;103218.72;5032221;28;20037;-69
2021/04/04 01:22:57;;;;;;;25.75;6.18;;;;;;;7.29;100.00;103211.59;5032335;28;20033;-71
2021/04/04 01:25:29;;;;;;;16.77;6.05;;;;;;;7.26;100.00;103217.31;5032067;28;20041;-69
2021/04/04 01:28:00;;;;;;;19.92;5.55;;;;;;;7.23;100.00;103213.06;5032168;28;20045;-68
2021/04/04 01:30:30;;;;;;;16.17;5.30;;;;;;;7.21;100.00;103208.81;5032146;28;20037;-69
2021/04/04 01:32:57;;;;;;;26.80;6.68;;;;;;;7.19;100.00;103205.41;5032159;28;20466;-69
2021/04/04 01:35:25;;;;;;;17.30;5.35;;;;;;;7.17;100.00;103202.84;5031870;28;20069;-68
2021/04/04 01:37:55;;;;;;;18.98;6.28;;;;;;;7.16;100.00;103200.31;5032012;28;20562;-69
2021/04/04 01:40:23;;;;;;;18.83;6.22;;;;;;;7.14;100.00;103205.06;5031910;28;20029;-68
2021/04/04 01:42:51;;;;;;;23.75;6.68;;;;;;;7.13;100.00;103197.91;5031787;28;20060;-69
2021/04/04 01:45:20;;;;;;;22.05;6.45;;;;;;;7.10;100.00;103195.50;5031884;28;20550;-69
2021/04/04 01:47:46;;;;;;;24.42;6.22;;;;;;;7.08;100.00;103192.94;5031895;28;20040;-69
2021/04/04 01:50:14;;;;;;;20.50;5.85;;;;;;;7.07;100.00;103195.81;5030522;28;20395;-68
2021/04/04 01:52:41;;;;;;;14.55;5.15;;;;;;;7.06;100.00;103194.13;5031715;28;20034;-68
2021/04/04 01:55:09;;;;;;;20.58;6.57;;;;;;;7.05;100.00;103201.41;5031519;28;20045;-69
2021/04/04 01:57:36;;;;;;;22.88;6.10;;;;;;;7.05;100.00;103197.84;5031443;28;20060;-69
2021/04/04 02:00:11;;;;;;;19.85;6.20;;;;;;;7.02;100.00;103199.03;5031390;28;20426;-70
2021/04/04 02:02:38;;;;;;;24.73;7.82;;;;;;;6.99;100.00;103191.22;5031298;28;20036;-69
2021/04/04 02:05:07;;;;;;;27.75;6.78;;;;;;;6.99;100.00;103190.34;5031296;28;20038;-68
2021/04/04 02:07:34;;;;;;;24.38;7.00;;;;;;;6.95;100.00;103181.69;5031077;28;20128;-71
2021/04/04 02:10:00;;;;;;;24.83;6.38;;;;;;;6.92;100.00;103180.09;5031122;28;20038;-69
2021/04/04 02:12:27;;;;;;;20.13;7.32;;;;;;;6.91;100.00;103185.72;5031080;28;20037;-71
2021/04/04 02:14:56;;;;;;;24.05;6.82;;;;;;;6.89;100.00;103182.31;5030418;28;20037;-70
2021/04/04 02:17:22;;;;;;;18.38;6.68;;;;;;;6.86;100.00;103183.47;5031106;28;20045;-71
2021/04/04 02:19:48;;;;;;;23.98;6.15;;;;;;;6.85;100.00;103176.34;5030944;28;20063;-70
2021/04/04 02:22:14;;;;;;;20.40;6.10;;;;;;;6.84;100.00;103190.94;5031139;28;20492;-68
2021/04/04 02:24:40;;;;;;;19.35;6.60;;;;;;;6.83;100.00;103178.38;5030862;28;20037;-69
2021/04/04 02:27:06;;;;;;;21.83;6.90;;;;;;;6.83;100.00;103175.66;5030957;28;20113;-68
2021/04/04 02:29:31;;;;;;;26.80;7.65;;;;;;;6.81;100.00;103180.41;5030916;28;20113;-68
2021/04/04 02:32:02;;;;;;;26.45;6.60;;;;;;;6.78;100.00;103169.88;5030906;28;20029;-68
2021/04/04 02:34:34;;;;;;;17.55;6.80;;;;;;;6.77;100.00;103173.59;5030848;28;20034;-69
2021/04/04 02:37:02;;;;;;;21.05;7.43;;;;;;;6.75;100.00;103175.59;5029594;28;20418;-69
2021/04/04 02:39:32;;;;;;;24.20;7.05;;;;;;;6.72;100.00;103178.63;5030863;28;20052;-68
2021/04/04 02:42:00;;;;;;;22.38;7.18;;;;;;;6.71;100.00;103171.50;5030766;28;20091;-71
2021/04/04 02:44:27;;;;;;;24.48;7.50;;;;;;;6.72;100.00;103175.06;5029472;28;20517;-69
2021/04/04 02:46:57;;;;;;;25.80;8.27;;;;;;;6.70;100.00;103172.50;5030741;28;20057;-69
2021/04/04 02:49:29;;;;;;;30.48;7.25;;;;;;;6.69;100.00;103170.81;5031008;28;20514;-68
2021/04/04 02:51:57;;;;;;;21.98;7.88;;;;;;;6.68;100.00;103169.09;5031033;28;20041;-69
2021/04/04 02:54:26;;;;;;;23.80;7.25;;;;;;;6.67;100.00;103170.13;5030705;28;20434;-69
2021/04/04 02:56:54;;;;;;;19.25;7.32;;;;;;;6.66;100.00;103168.41;5030630;28;20504;-70
2021/04/04 02:59:30;;;;;;;19.08;6.93;;;;;;;6.64;100.00;103162.28;5030554;28;20029;-68
2021/04/04 03:02:00;;;;;;;21.17;7.22;;;;;;;6.63;100.00;103153.28;5030651;28;20071;-68
2021/04/04 03:04:28;;;;;;;19.90;6.57;;;;;;;6.62;100.00;103158.88;5030416;28;20176;-71
2021/04/04 03:06:56;;;;;;;18.17;6.57;;;;;;;6.59;100.00;103154.59;5030757;28;20602;-69
2021/04/04 03:09:23;;;;;;;21.45;7.80;;;;;;;6.57;100.00;103156.63;5030576;28;20573;-70
2021/04/04 03:11:51;;;;;;;22.60;7.10;;;;;;;6.54;100.00;103147.94;5030494;28;20140;-69
2021/04/04 03:14:19;;;;;;;23.33;6.70;;;;;;;6.51;100.00;103151.00;5030382;28;20037;-68
2021/04/04 03:16:48;;;;;;;19.83;7.13;;;;;;;6.49;100.00;103153.03;5029045;28;20432;-68
2021/04/04 03:19:17;;;;;;;22.35;7.47;;;;;;;6.46;100.00;103154.19;5030325;28;20041;-71
2021/04/04 03:21:45;;;;;;;21.77;6.28;;;;;;;6.45;100.00;103162.50;5030484;28;20594;-68
2021/04/04 03:24:11;;;;;;;25.00;8.25;;;;;;;6.42;100.00;103157.34;5030269;28;20046;-68
2021/04/04 03:26:39;;;;;;;24.65;7.18;;;;;;;6.37;100.00;103157.84;5031543;28;20060;-69
2021/04/04 03:29:06;;;;;;;24.35;8.20;;;;;;;6.34;100.00;103164.44;5034052;28;20589;-69
2021/04/04 03:31:33;;;;;;;37.38;8.88;;;;;;;6.31;100.00;103153.91;5034050;28;20030;-69
2021/04/04 03:34:00;;;;;;;22.30;7.65;;;;;;;6.27;100.00;103160.66;5033870;28;20041;-68
2021/04/04 03:36:27;;;;;;;23.80;6.80;;;;;;;6.25;100.00;103146.41;5033892;28;20461;-69
2021/04/04 03:38:55;;;;;;;28.02;9.60;;;;;;;6.22;100.00;103145.84;5033984;28;20480;-69
2021/04/04 03:41:25;;;;;;;22.77;7.78;;;;;;;6.19;100.00;103147.00;5033942;28;20041;-68
2021/04/04 03:43:52;;;;;;;28.48;8.60;;;;;;;6.17;100.00;103149.03;5033693;28;20057;-69
2021/04/04 03:46:23;;;;;;;23.27;7.88;;;;;;;6.15;100.00;103150.19;5033929;28;20045;-70
2021/04/04 03:48:49;;;;;;;23.20;8.30;;;;;;;6.12;100.00;103148.66;5033726;28;20032;-68
2021/04/04 03:51:15;;;;;;;27.95;8.88;;;;;;;6.11;100.00;103138.81;5033654;28;20531;-68
2021/04/04 03:53:44;;;;;;;31.27;9.20;;;;;;;6.10;100.00;103147.97;5033574;28;20045;-68
2021/04/04 03:56:14;;;;;;;25.15;8.10;;;;;;;6.08;100.00;103144.56;5033614;28;20069;-68
2021/04/04 03:58:40;;;;;;;20.30;7.20;;;;;;;6.05;100.00;103145.69;5033608;28;20029;-68
2021/04/04 04:01:08;;;;;;;21.52;8.25;;;;;;;6.07;100.00;103152.81;5033706;28;20037;-68
2021/04/04 04:03:37;;;;;;;22.10;7.25;;;;;;;6.07;100.00;103148.25;5033352;28;20404;-68
2021/04/04 04:06:05;;;;;;;22.80;7.43;;;;;;;6.05;100.00;103147.56;5033365;28;20029;-69
2021/04/04 04:08:32;;;;;;;21.58;7.65;;;;;;;6.04;100.00;103145.84;5033362;28;20120;-70
2021/04/04 04:10:59;;;;;;;19.25;7.25;;;;;;;6.03;100.00;103146.88;5033481;28;20132;-68
2021/04/04 04:13:27;;;;;;;24.67;8.00;;;;;;;5.98;100.00;103152.75;5033478;28;20067;-69
2021/04/04 04:15:53;;;;;;;28.33;7.45;;;;;;;5.96;100.00;103152.06;5033264;28;20480;-68
2021/04/04 04:18:19;;;;;;;25.23;7.93;;;;;;;5.97;100.00;103142.06;5033090;28;20438;-69
2021/04/04 04:20:47;;;;;;;16.90;7.10;;;;;;;5.97;100.00;103152.91;5033143;28;20037;-69
2021/04/04 04:23:14;;;;;;;21.42;7.32;;;;;;;5.97;100.00;103147.50;5031595;28;20037;-68
2021/04/04 04:25:40;;;;;;;20.73;6.93;;;;;;;5.96;100.00;103148.50;5033046;28;20041;-69
2021/04/04 04:28:09;;;;;;;24.60;7.65;;;;;;;5.96;100.00;103151.22;5033105;28;20479;-68
2021/04/04 04:30:34;;;;;;;21.60;7.93;;;;;;;5.96;100.00;103145.78;5033113;28;20044;-69
2021/04/04 04:33:06;;;;;;;24.98;8.13;;;;;;;5.96;100.00;103146.66;5032987;28;20041;-68
2021/04/04 04:35:33;;;;;;;27.13;8.13;;;;;;;5.96;100.00;103145.78;5032745;28;20076;-69
2021/04/04 04:38:00;;;;;;;21.83;7.53;;;;;;;5.95;100.00;103138.66;5032314;28;20504;-68
2021/04/04 04:40:27;;;;;;;19.90;7.82;;;;;;;5.95;100.00;103144.09;5032793;28;20036;-70
2021/04/04 04:42:55;;;;;;;16.92;7.35;;;;;;;5.95;100.00;103149.50;5032513;28;20061;-71
2021/04/04 04:45:27;;;;;;;22.00;8.85;;;;;;;5.94;100.00;103151.38;5032663;28;20089;-71
2021/04/04 04:47:55;;;;;;;23.58;8.20;;;;;;;5.90;100.00;103151.81;5032798;28;20458;-69
2021/04/04 04:50:22;;;;;;;20.85;8.60;;;;;;;5.87;100.00;103146.69;5032703;28;20037;-69
2021/04/04 04:52:48;;;;;;;24.27;7.55;;;;;;;5.83;100.00;103156.13;5031121;28;20456;-68
2021/04/04 04:55:14;;;;;;;20.70;7.65;;;;;;;5.77;100.00;103143.19;5032442;28;20072;-69
2021/04/04 04:57:40;;;;;;;22.10;6.88;;;;;;;5.73;100.00;103145.38;5032462;28;20042;-68
2021/04/04 05:00:10;;;;;;;27.40;7.63;;;;;;;5.69;100.00;103144.81;5032493;28;20044;-68
2021/04/04 05:02:36;;;;;;;21.73;7.88;;;;;;;5.68;100.00;103153.94;5032579;28;20483;-68
2021/04/04 05:05:07;;;;;;;24.02;7.93;;;;;;;5.69;100.00;103149.38;5032454;28;20105;-69
2021/04/04 05:07:34;;;;;;;20.17;9.35;;;;;;;5.69;100.00;103161.06;5032416;28;20109;-69
2021/04/04 05:10:08;;;;;;;28.25;8.40;;;;;;;5.67;100.00;103152.25;5032216;28;20045;-69
2021/04/04 05:12:41;;;;;;;21.83;8.27;;;;;;;5.62;100.00;103154.56;5032042;28;20037;-69
2021/04/04 05:15:08;;;;;;;26.70;9.35;;;;;;;5.57;100.00;103156.91;5032136;28;20029;-70
2021/04/04 05:17:34;;;;;;;20.30;9.10;;;;;;;5.51;100.00;103157.47;5032126;28;20125;-68
2021/04/04 05:20:01;;;;;;;21.10;8.23;;;;;;;5.47;100.00;103158.81;5032272;28;20060;-70
2021/04/04 05:22:27;;;;;;;27.58;9.13;;;;;;;5.43;100.00;103162.81;5032286;28;20458;-69
2021/04/04 05:24:55;;;;;;;26.48;9.27;;;;;;;5.41;100.00;103159.41;5031877;28;20033;-68
2021/04/04 05:27:21;;;;;;;21.92;7.80;;;;;;;5.40;100.00;103157.72;5031841;28;20052;-68
2021/04/04 05:29:46;;;;;;;27.35;8.48;;;;;;;5.40;100.00;103149.59;5031837;28;20033;-69
2021/04/04 05:32:13;;;;;;;25.92;8.25;;;;;;;5.41;100.00;103151.28;5031877;28;20033;-69
2021/04/04 05:34:39;;;;;;;20.88;8.25;;;;;;;5.41;100.00;103151.28;5031714;28;20464;-68
2021/04/04 05:37:07;;;;;;;25.50;9.93;;;;;;;5.39;100.00;103154.16;5031824;28;20132;-69
2021/04/04 05:39:35;;;;;;;26.00;10.05;;;;;;;5.40;100.00;103161.28;5031689;28;20091;-69
2021/04/04 05:42:06;;;;;;;22.60;7.72;;;;;;;5.38;100.00;103156.97;5031402;28;20049;-68
2021/04/04 05:44:39;;;;;;;29.80;8.68;;;;;;;5.38;100.00;103165.13;5031470;28;20215;-68
2021/04/04 05:47:14;;;;;;;20.80;8.65;;;;;;;5.36;100.00;103161.72;5030320;28;20107;-68
2021/04/04 05:50:05;;;;;;;25.10;8.10;;;;;;;5.32;100.00;103163.88;5031108;28;20448;-69
2021/04/04 05:53:08;;;;;;;23.48;7.93;;;;;;;5.23;100.00;103153.09;5031546;28;20121;-70
2021/04/04 05:55:48;;;;;;;22.50;6.95;;;;;;;5.17;100.00;103169.94;5031273;28;20029;-69
2021/04/04 05:58:24;;;;;;;19.58;7.00;;;;;;;5.12;100.00;103167.69;5031310;28;20057;-68
2021/04/04 06:00:56;;;;;;;26.85;8.00;;;;;;;5.10;100.00;103170.53;5031778;28;20037;-70
2021/04/04 06:03:56;;;;;;;27.42;7.20;;;;;;;5.11;100.00;103166.81;5031265;28;20543;-70
2021/04/04 06:06:53;;;;;;;22.00;7.97;;;;;;;5.13;100.00;103170.25;5031406;28;20080;-68
2021/04/04 06:09:34;;;;;;;28.45;8.68;;;;;;;5.17;100.00;103175.34;5031477;28;20044;-69
2021/04/04 06:12:34;;;;;;;29.15;8.00;;;;;;;5.17;100.00;103175.34;5031119;28;20180;-68
2021/04/04 06:15:07;;;;;;;23.80;7.70;;;;;;;5.17;100.00;103186.19;5029416;28;20033;-69
2021/04/04 06:17:41;;;;;;;23.42;8.00;;;;;;;5.13;100.00;103175.66;5030906;28;20033;-68
2021/04/04 06:20:15;;;;;;;15.55;6.65;;;;;;;5.11;100.00;103177.66;5031064;28;20037;-69
2021/04/04 06:23:10;;;;;;;22.63;7.05;;;;;;;5.12;100.00;103173.94;5031258;28;20064;-68
2021/04/04 06:25:47;;;;;;;24.90;9.18;;;;;;;5.14;100.00;103182.78;5030925;28;20033;-68
2021/04/04 06:28:23;;;;;;;17.80;7.00;;;;;;;5.14;100.00;103171.94;5031299;28;20411;-69
2021/04/04 06:30:57;;;;;;;29.83;7.65;;;;;;;5.18;100.00;103174.34;5030934;28;20037;-70
2021/04/04 06:33:45;;;;;;;21.63;7.15;;;;;;;5.18;100.00;103172.50;5030612;28;20041;-71
2021/04/04 06:36:35;;;;;;;19.90;7.15;;;;;;;5.22;100.00;103167.66;5031052;28;20498;-68
2021/04/04 06:39:05;;;;;;;20.40;7.85;;;;;;;5.23;100.00;103175.63;5030858;28;20547;-69
2021/04/04 06:41:53;;;;;;;19.25;8.02;;;;;;;5.26;100.00;103169.06;5030842;28;20033;-70
2021/04/04 06:44:28;;;;;;;20.08;7.47;;;;;;;5.29;100.00;103174.16;5030037;28;20103;-69
2021/04/04 06:47:18;;;;;;;21.00;7.65;;;;;;;5.30;100.00;103170.44;5030786;28;20113;-69
2021/04/04 06:50:05;;;;;;;24.50;8.02;;;;;;;5.34;100.00;103171.84;5030745;28;20037;-68
2021/04/04 06:52:38;;;;;;;22.40;7.32;;;;;;;5.37;100.00;103176.97;5030784;28;20127;-70
2021/04/04 06:55:12;;;;;;;24.60;7.50;;;;;;;5.41;100.00;103178.38;5030590;28;20488;-68
2021/04/04 06:58:05;;;;;;;21.15;7.68;;;;;;;5.46;100.00;103176.06;5030873;28;20524;-70
2021/04/04 07:00:53;;;;;;;19.50;6.68;;;;;;;5.53;100.00;103165.47;5031438;28;20053;-68
2021/04/04 07:03:22;;;;;;;24.85;8.00;;;;;;;5.59;100.00;103170.28;5033461;28;20435;-70
2021/04/04 07:05:58;;;;;;;23.05;8.15;;;;;;;5.64;100.00;103166.13;5034552;28;20029;-68
2021/04/04 07:08:30;;;;;;;23.40;7.43;;;;;;;5.71;100.00;103159.06;5034660;28;20069;-69
2021/04/04 07:11:12;;;;;;;20.27;7.40;;;;;;;5.79;100.00;103160.16;5034481;28;20055;-70
2021/04/04 07:14:24;;;;;;;23.70;7.95;;;;;;;5.86;100.00;103167.53;5034505;28;20108;-68
2021/04/04 07:17:11;;;;;;;19.58;8.40;;;;;;;5.92;100.00;103160.69;5034349;28;20400;-69
2021/04/04 07:19:50;;;;;;;24.33;8.70;;;;;;;5.97;100.00;103159.19;5034399;28;20037;-69
2021/04/04 07:22:40;;;;;;;26.88;9.38;;;;;;;6.05;100.00;103161.97;5034442;28;20030;-68
2021/04/04 07:25:34;;;;;;;19.65;8.60;;;;;;;6.11;100.00;103154.25;5034245;28;20472;-69
2021/04/04 07:28:21;;;;;;;24.73;9.00;;;;;;;6.14;100.00;103154.78;5034251;28;20030;-70
2021/04/04 07:31:02;;;;;;;25.20;9.27;;;;;;;6.18;100.00;103156.16;5034254;28;20033;-71
2021/04/04 07:33:37;;;;;;;27.55;9.65;;;;;;;6.21;100.00;103150.41;5034318;28;20407;-68
2021/04/04 07:36:23;;;;;;;27.40;9.77;;;;;;;6.27;100.00;103155.22;5034022;28;20034;-68
2021/04/04 07:39:17;;;;;;;23.13;8.43;;;;;;;6.31;100.00;103151.19;5033957;28;20488;-70
2021/04/04 07:41:53;;;;;;;19.48;9.05;;;;;;;6.32;100.00;103146.59;5032431;28;20373;-69
2021/04/04 07:44:35;;;;;;;27.35;10.32;;;;;;;6.33;100.00;103151.88;5033637;28;20088;-68
2021/04/04 07:47:12;;;;;;;19.67;9.23;;;;;;;6.39;100.00;103152.25;5033867;28;20060;-69
2021/04/04 07:49:51;;;;;;;29.98;10.43;;;;;;;6.46;100.00;103143.34;5033960;28;20037;-71
2021/04/04 07:52:42;;;;;;;24.90;9.50;;;;;;;6.54;100.00;103137.09;5033844;28;20033;-68
2021/04/04 07:55:31;;;;;;;19.92;9.63;;;;;;;6.61;100.00;103141.75;5032364;28;20029;-68
2021/04/04 07:58:21;;;;;;;30.50;10.13;;;;;;;6.64;100.00;103140.56;5033603;28;20047;-68
2021/04/04 08:01:00;;;;;;;25.10;10.13;;;;;;;6.71;100.00;103138.06;5033625;28;20448;-69
2021/04/04 08:03:59;;;;;;;26.73;10.07;;;;;;;6.73;100.00;103139.59;5033565;28;20037;-69
2021/04/04 08:06:50;;;;;;;24.63;9.63;;;;;;;6.78;100.00;103131.84;5033453;28;20052;-70
2021/04/04 08:09:40;;;;;;;23.73;10.23;;;;;;;6.89;100.00;103133.41;5033449;28;20037;-69
2021/04/04 08:12:26;;;;;;;23.27;9.23;;;;;;;7.01;100.00;103133.97;5032552;28;20116;-70
2021/04/04 08:15:02;;;;;;;25.23;9.82;;;;;;;7.13;100.00;103129.97;5033317;28;20037;-70
2021/04/04 08:17:27;;;;;;;27.00;8.77;;;;;;;7.26;100.00;103130.34;5033257;28;20052;-68
2021/04/04 08:20:13;;;;;;;23.73;8.18;;;;;;;7.40;100.00;103132.44;5033240;28;20037;-68
2021/04/04 08:22:43;;;;;;;25.10;9.07;;;;;;;7.52;100.00;103142.00;5033238;28;20555;-69
2021/04/04 08:25:13;;;;;;;24.20;8.38;;;;;;;7.67;100.00;103133.19;5033062;28;20049;-69
2021/04/04 08:27:48;;;;;;;24.23;9.23;;;;;;;7.80;100.00;103133.53;5031693;28;20041;-70
2021/04/04 08:30:26;;;;;;;24.05;9.50;;;;;;;7.93;100.00;103123.03;5033150;28;20064;-68
2021/04/04 08:33:09;;;;;;;26.23;8.88;;;;;;;8.05;100.00;103127.13;5032883;28;20042;-69
2021/04/04 08:35:39;;;;;;;23.63;7.82;;;;;;;8.18;100.00;103126.63;5032969;28;20029;-69
2021/04/04 08:38:23;;;;;;;21.10;8.48;;;;;;;8.28;100.00;103126.44;5032867;28;20555;-70
2021/04/04 08:40:50;;;;;;;26.67;8.65;;;;;;;8.36;100.00;103123.75;5032845;28;20125;-68
2021/04/04 08:43:16;;;;;;;24.15;8.80;;;;;;;8.47;100.00;103123.38;5032441;28;20053;-71
2021/04/04 08:45:56;;;;;;;22.75;8.50;;;;;;;8.58;100.00;103127.63;5032743;28;20037;-68
2021/04/04 08:48:23;;;;;;;20.27;8.68;;;;;;;8.68;100.00;103129.16;5032664;28;20509;-69
2021/04/04 08:50:52;;;;;;;18.15;7.60;;;;;;;8.84;100.00;103138.28;5032786;28;20043;-68
2021/04/04 08:53:17;;;;;;;20.15;9.73;;;;;;;9.00;100.00;103135.50;5032474;28;20079;-69
2021/04/04 08:55:48;;;;;;;34.53;9.15;;;;;;;9.11;100.00;103129.69;5030924;28;20120;-70
2021/04/04 08:58:19;;;;;;;23.13;9.23;;;;;;;9.19;100.00;103143.25;5032478;28;20503;-69
2021/04/04 09:00:47;;;;;;;22.30;8.80;;;;;;;9.28;100.00;103147.66;5032478;28;20029;-68
2021/04/04 09:03:23;;;;;;;20.42;8.02;;;;;;;9.38;100.00;103146.63;5032327;28;20037;-69
2021/04/04 09:06:08;;;;;;;23.08;7.95;;;;;;;9.48;100.00;103152.69;5032831;28;20025;-69
2021/04/04 09:08:41;;;;;;;27.95;8.40;;;;;;;9.58;100.00;103142.41;5032403;28;20040;-69
2021/04/04 09:11:10;;;;;;;15.88;7.20;;;;;;;9.68;100.00;103143.03;5032637;28;20036;-69
2021/04/04 09:13:36;;;;;;;21.33;7.75;;;;;;;9.79;100.00;103148.09;5032307;28;20030;-69
2021/04/04 09:16:16;;;;;;;21.95;8.35;;;;;;;9.90;100.00;103142.22;5032080;28;20037;-69
2021/04/04 09:18:47;;;;;;;30.48;9.52;;;;;;;9.98;100.00;103139.41;5032133;28;20128;-70
2021/04/04 09:21:14;;;;;;;20.35;9.02;;;;;;;10.04;100.00;103131.50;5032058;28;20045;-68
2021/04/04 09:23:43;;;;;;;18.77;8.95;;;;;;;10.10;100.00;103134.38;5031595;28;20136;-68
2021/04/04 09:26:11;;;;;;;22.67;8.95;;;;;;;10.15;100.00;103123.75;5032032;28;20040;-69
2021/04/04 09:28:41;;;;;;;22.45;8.90;;;;;;;10.19;100.00;103126.97;5030702;28;20037;-70
2021/04/04 09:31:29;;;;;;;88.95;64.47;;;;;;;10.26;100.00;103134.28;5031880;28;20480;-69
2021/04/04 09:34:03;;;;;;;26.42;13.25;;;;;;;10.32;100.00;103127.22;5031690;28;20128;-69
2021/04/04 09:36:45;;;;;;;58.47;40.85;;;;;;;10.38;100.00;103134.66;5030391;28;20034;-68
2021/04/04 09:39:15;;;;;;;28.38;13.65;;;;;;;10.44;100.00;103117.56;5031813;28;20037;-70
2021/04/04 09:41:41;;;;;;;30.25;13.02;;;;;;;10.51;100.00;103123.97;5031613;28;20033;-68
2021/04/04 09:44:09;;;;;;;31.98;18.02;;;;;;;10.61;100.00;103133.78;5031286;28;20075;-67
2021/04/04 09:46:50;;;;;;;26.70;10.18;;;;;;;10.68;100.00;103121.06;5031624;28;20038;-68
2021/04/04 09:49:37;;;;;;;29.15;14.25;;;;;;;10.77;100.00;103122.69;5031491;28;20033;-68
2021/04/04 09:52:24;;;;;;;20.83;6.72;;;;;;;10.85;100.00;103122.56;5031336;28;20120;-69
2021/04/04 09:55:08;;;;;;;22.70;6.68;;;;;;;10.90;100.00;103111.06;5031364;28;20435;-67
2021/04/04 09:57:42;;;;;;;20.92;6.55;;;;;;;10.90;100.00;103111.91;5030297;28;20034;-69
2021/04/04 10:00:20;;;;;;;22.02;6.25;;;;;;;10.92;100.00;103109.00;5031390;28;20037;-68
2021/04/04 10:02:50;;;;;;;21.77;6.20;;;;;;;10.92;100.00;103096.16;5031386;28;20033;-67
2021/04/04 10:05:30;;;;;;;13.40;5.63;;;;;;;10.94;100.00;103098.75;5031304;28;20446;-67
2021/04/04 10:08:16;;;;;;;23.60;7.35;;;;;;;11.02;100.00;103098.63;5031380;28;20483;-68
2021/04/04 10:10:44;;;;;;;20.48;6.25;;;;;;;11.10;100.00;103099.34;5031239;28;20095;-67
2021/04/04 10:13:11;;;;;;;17.58;6.70;;;;;;;11.20;100.00;103092.75;5031104;28;20041;-67
2021/04/04 10:15:48;;;;;;;21.45;6.65;;;;;;;11.28;100.00;103096.25;5031171;28;20056;-68
2021/04/04 10:18:17;;;;;;;20.38;6.28;;;;;;;11.36;100.00;103089.81;5030968;28;20121;-67
2021/04/04 10:20:48;;;;;;;21.40;6.43;;;;;;;11.48;100.00;103088.25;5031025;28;20399;-68
2021/04/04 10:23:15;;;;;;;17.60;7.63;;;;;;;11.60;100.00;103081.22;5030772;28;20056;-67
2021/04/04 10:26:05;;;;;;;21.48;7.43;;;;;;;11.78;100.00;103073.44;5031023;28;20107;-68
2021/04/04 10:28:55;;;;;;;22.02;7.82;;;;;;;11.90;100.00;103070.19;5030756;28;20107;-68
2021/04/04 10:31:23;;;;;;;22.55;8.05;;;;;;;11.98;100.00;103073.66;5030562;28;20502;-67
2021/04/04 10:34:00;;;;;;;25.13;7.82;;;;;;;12.05;100.00;103068.22;5030604;28;20037;-68
2021/04/04 10:36:27;;;;;;;22.23;7.43;;;;;;;12.10;100.00;103064.88;5030249;28;20036;-67
2021/04/04 10:38:53;;;;;;;26.13;8.15;;;;;;;12.15;100.00;103068.72;5030856;28;20049;-67
2021/04/04 10:41:35;;;;;;;25.42;7.20;;;;;;;12.27;100.00;103056.16;5031091;28;20041;-68
2021/04/04 10:44:01;;;;;;;24.17;7.15;;;;;;;12.36;100.00;103054.97;5030561;28;20124;-68
2021/04/04 10:46:34;;;;;;;21.75;7.68;;;;;;;12.42;100.00;103047.00;5030728;28;20507;-68
2021/04/04 10:49:01;;;;;;;28.67;7.53;;;;;;;12.41;100.00;103043.41;5030744;28;20033;-68
2021/04/04 10:51:29;;;;;;;21.05;7.10;;;;;;;12.42;100.00;103031.41;5030736;28;20048;-67
2021/04/04 10:53:54;;;;;;;21.88;7.22;;;;;;;12.47;100.00;103028.03;5030599;28;20441;-67
2021/04/04 10:56:20;;;;;;;23.02;7.43;;;;;;;12.54;100.00;103017.97;5030634;28;20037;-68
2021/04/04 10:58:47;;;;;;;14.65;6.85;;;;;;;12.64;100.00;103018.44;5030428;28;20037;-67
2021/04/04 11:01:14;;;;;;;29.35;7.63;;;;;;;12.76;100.00;103011.34;5030543;28;20068;-68
2021/04/04 11:03:44;;;;;;;22.00;6.68;;;;;;;12.90;100.00;103006.75;5030498;28;20041;-67
2021/04/04 11:06:11;;;;;;;20.73;7.00;;;;;;;12.91;100.00;102998.31;5030476;28;20041;-67
2021/04/04 11:08:39;;;;;;;19.65;6.43;;;;;;;12.95;100.00;102999.59;5030433;28;20128;-68
2021/04/04 11:11:06;;;;;;;19.65;5.50;;;;;;;13.00;100.00;103001.72;5031016;28;20472;-67
2021/04/04 11:13:34;;;;;;;29.13;7.25;;;;;;;13.06;100.00;103003.66;5030332;28;20041;-67
2021/04/04 11:16:05;;;;;;;22.70;6.35;;;;;;;13.05;100.00;102999.22;5030367;28;20036;-68
2021/04/04 11:18:41;;;;;;;23.08;6.28;;;;;;;13.02;100.00;102993.31;5030549;28;20431;-67
2021/04/04 11:21:17;;;;;;;21.80;7.80;;;;;;;12.98;100.00;102984.63;5030498;28;20041;-68
2021/04/04 11:23:44;;;;;;;14.10;6.13;;;;;;;12.98;100.00;102977.25;5030194;28;20042;-67
2021/04/04 11:26:33;;;;;;;31.85;7.03;;;;;;;12.97;100.00;102975.56;5030304;28;20037;-68
2021/04/04 11:29:20;;;;;;;24.85;7.03;;;;;;;13.11;100.00;102970.09;5030042;28;20616;-67
2021/04/04 11:31:49;;;;;;;25.23;7.00;;;;;;;13.24;100.00;102975.66;5029997;28;20041;-68
2021/04/04 11:34:48;;;;;;;17.52;6.85;;;;;;;13.38;100.00;102971.06;5030681;28;20033;-68
2021/04/04 11:37:16;;;;;;;24.80;6.70;;;;;;;13.50;100.00;102963.88;5021905;28;20145;-68
2021/04/04 11:40:11;;;;;;;24.13;7.57;;;;;;;13.64;100.00;102943.59;5030177;28;20083;-68